Time;durP1;ratioP1;P1;durP2;ratioP2;P2;SDS_P1;SDS_P2;PMS_P1;PMS_P2;Temp;Humidity;BMP_temperature;BMP_pressure;BME280_temperature;BME280_humidity;BME280_pressure;Samples;Min_cycle;Max_cycle;Signal;HPM_P1;HPM_P2
2021/01/22 00:02:07;;;;;;;;;;;;;;;12.40;57.95;98924.31;5074989;27;96505;-81
2021/01/22 00:04:33;;;;;;;;;;;;;;;12.02;58.96;98919.91;5077538;27;96818;-81
2021/01/22 00:07:00;;;;;;;;;;;;;;;12.00;58.74;98910.41;5078957;27;100320;-82
2021/01/22 00:09:28;;;;;;;;;;;;;;;11.86;58.81;98924.59;5092742;27;98518;-82
2021/01/22 00:11:53;;;;;;;;;;;;;;;11.82;58.90;98908.09;5096408;27;96455;-82
2021/01/22 00:14:20;;;;;;;;;;;;;;;11.77;58.90;98906.72;5087968;27;96716;-82
2021/01/22 00:16:47;;;;;;;;;;;;;;;12.20;56.97;98892.16;5086936;27;97884;-81
2021/01/22 00:21:58;;;;;;;;;;;;;;;11.56;58.08;98883.41;5083368;27;96446;-80
2021/01/22 00:24:25;;;;;;;;;;;;;;;11.84;57.26;98868.28;5078402;27;98066;-81
2021/01/22 00:26:54;;;;;;;;;;;;;;;11.87;56.71;98862.78;5093495;27;100260;-81
2021/01/22 00:29:21;;;;;;;;;;;;;;;12.05;55.74;98858.84;5095742;27;98488;-81
2021/01/22 00:31:47;;;;;;;;;;;;;;;11.99;55.41;98843.41;5093935;27;96862;-81
2021/01/22 00:34:14;;;;;;;;;;;;;;;12.05;54.97;98837.66;5075335;27;96794;-82
2021/01/22 00:36:42;;;;;;;;;;;;;;;11.81;55.42;98848.19;5073518;27;99407;-81
2021/01/22 00:39:08;;;;;;;;;;;;;;;11.56;56.22;98833.13;5090898;27;101012;-81
2021/01/22 00:41:35;;;;;;;;;;;;;;;11.56;56.20;98832.28;5072549;27;96759;-81
2021/01/22 00:44:03;;;;;;;;;;;;;;;11.82;55.39;98817.25;5088989;27;96821;-80
2021/01/22 00:46:34;;;;;;;;;;;;;;;12.13;54.66;98818.59;5076662;27;97289;-80
2021/01/22 00:49:05;;;;;;;;;;;;;;;11.94;54.59;98804.03;5075216;27;98102;-81
2021/01/22 00:51:33;;;;;;;;;;;;;;;11.69;55.34;98801.38;5074722;27;97342;-81
2021/01/22 00:53:59;;;;;;;;;;;;;;;12.07;54.03;98803.16;5090682;27;97507;-81
2021/01/22 00:56:26;;;;;;;;;;;;;;;12.25;53.67;98812.38;5093686;27;101583;-81
2021/01/22 00:58:52;;;;;;;;;;;;;;;12.45;52.77;98806.47;5089559;27;100777;-81
2021/01/22 01:01:18;;;;;;;;;;;;;;;12.43;52.60;98799.59;5072863;27;96684;-81
2021/01/22 01:03:44;;;;;;;;;;;;;;;12.68;51.95;98804.75;5090342;27;96624;-81
2021/01/22 01:06:10;;;;;;;;;;;;;;;12.46;52.23;98794.94;5074155;27;100856;-81
2021/01/22 01:08:40;;;;;;;;;;;;;;;12.40;52.52;98797.19;5085138;27;98316;-83
2021/01/22 01:11:09;;;;;;;;;;;;;;;12.30;53.05;98791.72;5086205;27;96704;-81
2021/01/22 01:13:36;;;;;;;;;;;;;;;12.58;52.38;98786.06;5087893;27;96550;-82
2021/01/22 01:16:06;;;;;;;;;;;;;;;12.73;51.95;98781.44;5093960;27;98691;-82
2021/01/22 01:18:34;;;;;;;;;;;;;;;12.72;51.97;98787.69;5080984;27;96990;-82
2021/01/22 01:21:00;;;;;;;;;;;;;;;12.97;51.40;98786.69;5082769;27;96666;-82
2021/01/22 01:23:28;;;;;;;;;;;;;;;12.73;52.18;98784.09;5112578;27;96394;-82
2021/01/22 01:25:55;;;;;;;;;;;;;;;12.83;52.12;98779.78;5069077;27;97444;-82
2021/01/22 01:28:21;;;;;;;;;;;;;;;12.73;52.60;98789.38;5080870;27;98148;-82
2021/01/22 01:30:48;;;;;;;;;;;;;;;12.91;52.50;98771.25;5085218;27;96863;-81
2021/01/22 01:33:13;;;;;;;;;;;;;;;13.26;51.80;98781.84;5070742;27;96821;-82
2021/01/22 01:35:42;;;;;;;;;;;;;;;13.02;52.10;98772.09;5090706;27;100641;-82
2021/01/22 01:38:08;;;;;;;;;;;;;;;12.88;52.40;98767.00;5089767;27;100670;-81
2021/01/22 01:40:34;;;;;;;;;;;;;;;12.80;53.10;98769.38;5087414;27;96636;-81
2021/01/22 01:43:01;;;;;;;;;;;;;;;13.07;52.38;98755.84;5101913;27;96795;-81
2021/01/22 01:45:30;;;;;;;;;;;;;;;12.95;52.53;98748.81;5105588;27;100738;-81
2021/01/22 01:47:56;;;;;;;;;;;;;;;13.20;52.25;98753.09;5090519;27;101039;-80
2021/01/22 01:50:23;;;;;;;;;;;;;;;13.30;51.58;98746.16;5089705;27;96648;-80
2021/01/22 01:52:50;;;;;;;;;;;;;;;13.09;52.09;98745.97;5089774;27;96842;-81
2021/01/22 01:55:18;;;;;;;;;;;;;;;13.33;51.81;98725.50;5088114;27;99877;-81
2021/01/22 01:57:44;;;;;;;;;;;;;;;13.44;51.53;98743.25;5086051;27;100091;-81
2021/01/22 02:00:12;;;;;;;;;;;;;;;13.19;51.89;98733.72;5087507;27;96643;-81
2021/01/22 02:02:42;;;;;;;;;;;;;;;12.86;52.77;98739.78;5078932;27;96513;-82
2021/01/22 02:05:10;;;;;;;;;;;;;;;12.97;52.53;98745.13;5072839;27;96965;-81
2021/01/22 02:07:36;;;;;;;;;;;;;;;13.14;52.21;98739.38;5049929;27;97649;-80
2021/01/22 02:12:44;;;;;;;;;;;;;;;13.24;51.97;98730.72;5093315;27;98072;-81
2021/01/22 02:15:13;;;;;;;;;;;;;;;13.43;51.45;98737.09;5059749;27;98667;-81
2021/01/22 02:17:41;;;;;;;;;;;;;;;13.62;50.86;98723.22;5072775;27;98871;-81
2021/01/22 02:20:15;;;;;;;;;;;;;;;13.72;50.50;98718.84;5080955;27;96939;-81
2021/01/22 02:22:42;;;;;;;;;;;;;;;13.37;51.28;98707.56;5075622;27;96809;-82
2021/01/22 02:25:10;;;;;;;;;;;;;;;13.37;51.15;98699.59;5069266;27;101470;-81
2021/01/22 02:27:38;;;;;;;;;;;;;;;13.00;51.90;98691.00;5072946;27;100219;-81
2021/01/22 02:30:05;;;;;;;;;;;;;;;13.18;51.66;98702.03;5074063;27;97052;-80
2021/01/22 02:32:32;;;;;;;;;;;;;;;13.45;50.64;98705.16;5065677;27;96906;-80
2021/01/22 02:34:58;;;;;;;;;;;;;;;13.60;50.28;98701.25;5079616;27;97940;-80
2021/01/22 02:37:25;;;;;;;;;;;;;;;13.39;50.67;98682.59;5083677;27;99191;-81
2021/01/22 02:39:52;;;;;;;;;;;;;;;13.50;50.43;98695.00;5083925;27;96949;-79
2021/01/22 02:42:20;;;;;;;;;;;;;;;13.03;51.04;98690.75;5075079;27;96958;-80
2021/01/22 02:44:48;;;;;;;;;;;;;;;13.32;50.42;98689.38;5079304;27;98985;-80
2021/01/22 02:47:15;;;;;;;;;;;;;;;13.32;50.06;98689.38;5080899;27;101761;-80
2021/01/22 02:49:42;;;;;;;;;;;;;;;13.06;50.82;98670.16;5071955;27;98958;-81
2021/01/22 02:52:09;;;;;;;;;;;;;;;13.46;49.76;98669.69;5076515;27;96970;-82
2021/01/22 02:54:36;;;;;;;;;;;;;;;13.42;49.78;98662.94;5104679;27;99895;-82
2021/01/22 02:57:05;;;;;;;;;;;;;;;13.13;50.03;98676.69;5080674;27;98500;-80
2021/01/22 02:59:38;;;;;;;;;;;;;;;13.63;48.96;98661.22;5070926;27;96686;-82
2021/01/22 03:02:16;;;;;;;;;;;;;;;13.43;49.11;98656.69;5095327;27;96814;-82
2021/01/22 03:04:42;;;;;;;;;;;;;;;13.37;48.91;98652.72;5088097;27;101233;-79
2021/01/22 03:07:10;;;;;;;;;;;;;;;13.56;48.43;98668.00;5090413;27;100436;-80
2021/01/22 03:09:39;;;;;;;;;;;;;;;13.46;48.41;98662.56;5068920;27;96730;-82
2021/01/22 03:12:06;;;;;;;;;;;;;;;13.39;48.21;98650.75;5096300;27;96943;-80
2021/01/22 03:14:35;;;;;;;;;;;;;;;13.61;47.73;98641.06;5095713;27;99376;-81
2021/01/22 03:17:03;;;;;;;;;;;;;;;13.37;48.40;98652.72;5097376;27;99151;-81
2021/01/22 03:19:32;;;;;;;;;;;;;;;13.48;47.64;98639.41;5089255;27;97750;-82
2021/01/22 03:21:58;;;;;;;;;;;;;;;13.83;46.87;98651.66;5096136;27;96618;-81
2021/01/22 03:24:25;;;;;;;;;;;;;;;13.86;46.53;98660.19;5117846;27;100731;-81
2021/01/22 03:26:51;;;;;;;;;;;;;;;13.78;46.96;98646.72;5099051;27;97481;-82
2021/01/22 03:29:17;;;;;;;;;;;;;;;13.66;46.99;98641.53;5079989;27;96850;-82
2021/01/22 03:31:43;;;;;;;;;;;;;;;13.34;47.64;98649.44;5070991;27;96884;-81
2021/01/22 03:34:09;;;;;;;;;;;;;;;13.26;47.47;98657.19;5084340;27;99946;-82
2021/01/22 03:36:36;;;;;;;;;;;;;;;13.47;47.35;98658.94;5093500;27;101278;-81
2021/01/22 03:39:03;;;;;;;;;;;;;;;13.46;47.12;98643.16;5077195;27;96693;-81
2021/01/22 03:41:29;;;;;;;;;;;;;;;13.28;47.57;98641.97;5065077;27;98216;-82
2021/01/22 03:43:55;;;;;;;;;;;;;;;13.53;47.16;98644.34;5069733;27;97936;-82
2021/01/22 03:46:21;;;;;;;;;;;;;;;13.44;47.14;98648.59;5086421;27;100950;-81
2021/01/22 03:48:47;;;;;;;;;;;;;;;13.54;46.65;98633.59;5086702;27;96620;-82
2021/01/22 03:51:13;;;;;;;;;;;;;;;13.30;47.06;98634.75;5085641;27;96393;-82
2021/01/22 03:53:40;;;;;;;;;;;;;;;13.47;46.68;98631.56;5096508;27;99128;-82
2021/01/22 03:56:07;;;;;;;;;;;;;;;13.41;46.50;98642.69;5081431;27;99465;-83
2021/01/22 03:58:33;;;;;;;;;;;;;;;13.10;47.12;98617.72;5078474;27;96587;-82
2021/01/22 04:01:06;;;;;;;;;;;;;;;13.38;46.78;98611.97;5076312;27;96568;-81
2021/01/22 04:03:33;;;;;;;;;;;;;;;13.42;46.21;98625.81;5091592;27;100515;-82
2021/01/22 04:06:00;;;;;;;;;;;;;;;13.23;46.56;98617.63;5083392;27;96574;-82
2021/01/22 04:08:27;;;;;;;;;;;;;;;13.24;46.29;98601.59;5085375;27;96877;-83
2021/01/22 04:10:54;;;;;;;;;;;;;;;13.45;45.94;98601.69;5062444;27;96893;-81
2021/01/22 04:13:21;;;;;;;;;;;;;;;13.46;45.93;98608.66;5064435;27;97331;-81
2021/01/22 04:15:47;;;;;;;;;;;;;;;13.45;45.78;98602.53;5083164;27;98050;-81
2021/01/22 04:18:14;;;;;;;;;;;;;;;13.33;45.71;98613.25;5064042;27;96732;-81
2021/01/22 04:20:40;;;;;;;;;;;;;;;13.43;45.85;98593.00;5075660;27;96768;-81
2021/01/22 04:23:08;;;;;;;;;;;;;;;13.35;45.87;98585.66;5084317;27;100362;-82
2021/01/22 04:25:34;;;;;;;;;;;;;;;13.76;44.88;98578.78;5080848;27;102155;-81
2021/01/22 04:28:01;;;;;;;;;;;;;;;13.41;45.67;98579.84;5070049;27;96659;-81
2021/01/22 04:30:27;;;;;;;;;;;;;;;13.44;45.66;98581.44;5088186;27;96656;-81
2021/01/22 04:32:53;;;;;;;;;;;;;;;13.56;45.09;98573.31;5087327;27;96810;-81
2021/01/22 04:35:19;;;;;;;;;;;;;;;13.24;45.65;98577.72;5081577;27;99802;-81
2021/01/22 04:37:46;;;;;;;;;;;;;;;13.32;45.46;98579.78;5068767;27;96978;-81
2021/01/22 04:40:13;;;;;;;;;;;;;;;13.37;45.45;98580.25;5084958;27;96844;-81
2021/01/22 04:42:41;;;;;;;;;;;;;;;13.44;45.43;98574.31;5089257;27;101805;-82
2021/01/22 04:45:12;;;;;;;;;;;;;;;13.27;45.43;98560.72;5093715;27;98086;-81
2021/01/22 04:47:39;;;;;;;;;;;;;;;13.27;45.34;98560.72;5090267;27;96815;-81
2021/01/22 04:50:06;;;;;;;;;;;;;;;13.45;45.27;98572.50;5073972;27;96576;-80
2021/01/22 04:52:33;;;;;;;;;;;;;;;13.31;45.10;98548.91;5076756;27;101335;-81
2021/01/22 04:55:02;;;;;;;;;;;;;;;13.34;45.15;98569.88;5066693;27;100528;-81
2021/01/22 04:57:31;;;;;;;;;;;;;;;13.26;45.42;98554.56;5089227;27;96858;-80
2021/01/22 04:59:57;;;;;;;;;;;;;;;13.26;45.44;98543.97;5095032;27;96846;-80
2021/01/22 05:02:24;;;;;;;;;;;;;;;13.30;45.35;98539.25;5093348;27;97844;-81
2021/01/22 05:04:50;;;;;;;;;;;;;;;13.35;45.20;98540.56;5092833;27;99781;-80
2021/01/22 05:07:20;;;;;;;;;;;;;;;13.40;45.24;98525.13;5078869;27;97280;-81
2021/01/22 05:09:46;;;;;;;;;;;;;;;13.62;44.54;98518.88;5063844;27;96918;-81
2021/01/22 05:12:12;;;;;;;;;;;;;;;13.37;44.99;98536.00;5072859;27;99370;-80
2021/01/22 05:14:37;;;;;;;;;;;;;;;13.57;44.51;98539.66;5085401;27;99292;-81
2021/01/22 05:17:04;;;;;;;;;;;;;;;13.71;44.21;98522.59;5085224;27;96786;-80
2021/01/22 05:19:32;;;;;;;;;;;;;;;13.10;45.19;98517.81;5081905;27;96859;-81
2021/01/22 05:21:58;;;;;;;;;;;;;;;13.63;44.40;98515.28;5080384;27;100744;-80
2021/01/22 05:24:27;;;;;;;;;;;;;;;13.44;44.63;98501.84;5074112;27;96939;-81
2021/01/22 05:27:00;;;;;;;;;;;;;;;13.19;45.19;98512.78;5071492;27;96871;-82
2021/01/22 05:29:26;;;;;;;;;;;;;;;13.27;45.18;98502.38;5073138;27;96874;-81
2021/01/22 05:31:53;;;;;;;;;;;;;;;13.30;44.96;98510.09;5108042;27;98194;-80
2021/01/22 05:34:19;;;;;;;;;;;;;;;13.63;44.33;98509.13;5099953;27;99862;-81
2021/01/22 05:36:47;;;;;;;;;;;;;;;13.52;44.42;98502.06;5081923;27;98738;-80
2021/01/22 05:39:18;;;;;;;;;;;;;;;13.22;45.06;98501.91;5077214;27;96881;-81
2021/01/22 05:41:50;;;;;;;;;;;;;;;13.07;45.21;98506.59;5084757;27;101604;-81
2021/01/22 05:44:19;;;;;;;;;;;;;;;13.13;45.31;98504.34;5083487;27;98619;-82
2021/01/22 05:46:59;;;;;;;;;;;;;;;13.20;45.12;98506.47;5088377;27;96758;-81
2021/01/22 05:49:25;;;;;;;;;;;;;;;13.34;45.19;98514.16;5094429;27;96615;-82
2021/01/22 05:51:52;;;;;;;;;;;;;;;13.53;44.57;98507.22;5093781;27;99095;-81
2021/01/22 05:54:35;;;;;;;;;;;;;;;13.59;44.36;98518.31;5093060;27;99776;-81
2021/01/22 05:57:01;;;;;;;;;;;;;;;13.25;45.16;98530.84;5073475;27;96697;-81
2021/01/22 05:59:27;;;;;;;;;;;;;;;13.28;45.27;98512.00;5095283;27;96776;-82
2021/01/22 06:01:55;;;;;;;;;;;;;;;13.01;45.63;98491.19;5111888;27;100012;-80
2021/01/22 06:04:21;;;;;;;;;;;;;;;12.87;46.01;98502.91;5098012;27;97635;-82
2021/01/22 06:06:50;;;;;;;;;;;;;;;13.16;45.47;98506.75;5103678;22;100606;-82
2021/01/22 06:09:30;;;;;;;;;;;;;;;13.24;45.25;98498.19;5083072;27;96831;-81
2021/01/22 06:11:58;;;;;;;;;;;;;;;12.97;45.64;98500.38;5061313;27;101935;-82
2021/01/22 06:14:25;;;;;;;;;;;;;;;13.23;45.52;98493.84;5071433;27;100047;-81
2021/01/22 06:16:52;;;;;;;;;;;;;;;13.42;45.00;98490.50;5068635;27;96593;-81
2021/01/22 06:19:20;;;;;;;;;;;;;;;13.23;45.45;98490.34;5066180;27;96867;-82
2021/01/22 06:21:49;;;;;;;;;;;;;;;13.32;45.29;98485.13;5062650;27;99674;-81
2021/01/22 06:24:15;;;;;;;;;;;;;;;13.40;45.23;98492.44;5064474;27;101283;-82
2021/01/22 06:26:42;;;;;;;;;;;;;;;13.29;45.28;98505.75;5072446;27;96830;-81
2021/01/22 06:29:10;;;;;;;;;;;;;;;13.18;45.73;98498.69;5064850;27;96877;-81
2021/01/22 06:31:37;;;;;;;;;;;;;;;13.06;46.13;98495.16;5070854;27;99190;-80
2021/01/22 06:34:06;;;;;;;;;;;;;;;12.92;46.50;98481.34;5074932;27;98064;-81
2021/01/22 06:36:36;;;;;;;;;;;;;;;13.21;45.80;98485.16;5069215;27;96871;-81
2021/01/22 06:39:04;;;;;;;;;;;;;;;13.28;45.59;98483.69;5065253;27;96914;-81
2021/01/22 06:41:31;;;;;;;;;;;;;;;13.35;45.64;98466.28;5057411;27;99044;-81
2021/01/22 06:44:00;;;;;;;;;;;;;;;13.55;44.88;98488.53;5041623;28;98647;-80
2021/01/22 06:46:27;;;;;;;;;;;;;;;13.45;45.24;98490.28;5050480;27;98618;-81
2021/01/22 06:48:54;;;;;;;;;;;;;;;13.00;46.06;98487.69;5068059;27;96883;-82
2021/01/22 06:51:21;;;;;;;;;;;;;;;13.42;45.55;98485.19;5075113;27;101661;-82
2021/01/22 06:54:06;;;;;;;;;;;;;;;13.46;45.29;98481.31;5075437;27;100613;-82
2021/01/22 06:56:32;;;;;;;;;;;;;;;13.43;45.52;98487.72;5069266;27;96709;-82
2021/01/22 06:59:13;;;;;;;;;;;;;;;13.18;45.97;98503.97;5054954;27;96870;-81
2021/01/22 07:01:41;;;;;;;;;;;;;;;13.60;45.42;98488.13;5055558;27;99557;-81
2021/01/22 07:04:19;;;;;;;;;;;;;;;13.16;46.28;98496.16;5055683;28;98925;-81
2021/01/22 07:06:55;;;;;;;;;;;;;;;12.99;46.66;98496.66;5058605;27;98894;-81
2021/01/22 07:09:22;;;;;;;;;;;;;;;12.85;47.07;98490.75;5069799;27;96191;-81
2021/01/22 07:12:06;;;;;;;;;;;;;;;13.14;46.47;98484.81;5058537;27;98503;-83
2021/01/22 07:14:37;;;;;;;;;;;;;;;13.16;46.33;98490.84;5055378;27;97609;-82
2021/01/22 07:17:20;;;;;;;;;;;;;;;13.22;46.23;98492.16;5075093;27;96649;-81
2021/01/22 07:20:00;;;;;;;;;;;;;;;13.40;45.87;98501.25;5074908;27;96688;-81
2021/01/22 07:22:28;;;;;;;;;;;;;;;13.19;46.48;98494.22;5073028;27;96981;-81
2021/01/22 07:24:56;;;;;;;;;;;;;;;13.33;46.26;98501.88;5066983;27;98170;-80
2021/01/22 07:27:22;;;;;;;;;;;;;;;13.51;45.86;98490.59;5062774;27;96998;-82
2021/01/22 07:30:08;;;;;;;;;;;;;;;13.06;46.96;98494.34;5057336;27;96621;-80
2021/01/22 07:32:40;;;;;;;;;;;;;;;13.59;45.89;98505.84;5059277;27;99656;-83
2021/01/22 07:35:07;;;;;;;;;;;;;;;13.69;45.52;98498.00;5074680;27;99300;-82
2021/01/22 07:37:51;;;;;;;;;;;;;;;13.88;45.03;98506.94;5075138;27;98125;-81
2021/01/22 07:40:17;;;;;;;;;;;;;;;13.75;45.55;98500.97;5067696;27;96720;-80
2021/01/22 07:42:44;;;;;;;;;;;;;;;13.92;44.83;98513.66;5053909;28;99293;-80
2021/01/22 07:45:11;;;;;;;;;;;;;;;13.66;45.61;98507.03;5056223;27;98156;-82
2021/01/22 07:47:41;;;;;;;;;;;;;;;13.83;45.30;98510.94;5074362;27;96617;-81
2021/01/22 07:50:11;;;;;;;;;;;;;;;13.28;46.56;98522.63;5070751;27;96589;-85
2021/01/22 07:52:41;;;;;;;;;;;;;;;13.67;45.95;98511.38;5069238;27;100272;-83
2021/01/22 07:55:13;;;;;;;;;;;;;;;13.84;45.52;98529.41;5076762;27;100417;-84
2021/01/22 07:57:47;;;;;;;;;;;;;;;13.64;45.91;98519.63;5065681;27;96001;-82
2021/01/22 08:00:25;;;;;;;;;;;;;;;13.83;45.69;98516.25;5071911;27;96953;-82
2021/01/22 08:02:59;;;;;;;;;;;;;;;13.87;45.56;98520.34;5070034;27;99769;-83
2021/01/22 08:05:32;;;;;;;;;;;;;;;14.00;45.27;98528.94;5069222;27;101733;-84
2021/01/22 08:07:59;;;;;;;;;;;;;;;14.00;45.31;98523.63;5053741;27;96903;-83
2021/01/22 08:10:28;;;;;;;;;;;;;;;14.47;44.18;98526.75;5061996;27;97371;-82
2021/01/22 08:12:55;;;;;;;;;;;;;;;14.11;44.79;98536.84;5064460;27;98731;-82
2021/01/22 08:15:22;;;;;;;;;;;;;;;14.10;44.60;98534.34;5065131;27;99889;-82
2021/01/22 08:17:49;;;;;;;;;;;;;;;14.20;44.84;98532.56;5064720;27;96803;-82
2021/01/22 08:20:17;;;;;;;;;;;;;;;14.16;44.55;98544.44;5051574;27;97381;-80
2021/01/22 08:22:43;;;;;;;;;;;;;;;14.60;43.68;98546.81;5040333;28;100789;-84
2021/01/22 08:25:10;;;;;;;;;;;;;;;14.42;44.29;98548.41;5046833;27;99941;-82
2021/01/22 08:27:36;;;;;;;;;;;;;;;14.31;44.35;98557.25;5052127;27;96936;-81
2021/01/22 08:30:04;;;;;;;;;;;;;;;14.13;44.74;98556.16;5052374;27;97013;-83
2021/01/22 08:32:30;;;;;;;;;;;;;;;14.47;44.12;98554.16;5057637;27;101102;-82
2021/01/22 08:34:58;;;;;;;;;;;;;;;14.36;44.04;98572.81;5065101;27;101316;-84
2021/01/22 08:37:30;;;;;;;;;;;;;;;14.22;45.11;98584.59;5064149;27;96734;-83
2021/01/22 08:39:59;;;;;;;;;;;;;;;14.48;45.08;98593.06;5116491;22;99054;-83
2021/01/22 08:42:27;;;;;;;;;;;;;;;13.77;47.80;98634.41;5060656;27;97376;-83
2021/01/22 08:44:54;;;;;;;;;;;;;;;13.69;50.54;98671.34;5063313;27;99271;-83
2021/01/22 08:47:20;;;;;;;;;;;;;;;13.00;52.48;98697.13;5056094;27;97458;-82
2021/01/22 08:49:56;;;;;;;;;;;;;;;12.65;53.91;98699.88;5055726;27;97156;-81
2021/01/22 08:52:22;;;;;;;;;;;;;;;13.14;53.08;98715.50;5056057;27;100836;-82
2021/01/22 08:54:53;;;;;;;;;;;;;;;12.82;54.09;98718.91;5057676;27;104965;-80
2021/01/22 08:57:19;;;;;;;;;;;;;;;12.58;54.73;98733.09;5035947;28;96865;-79
2021/01/22 08:59:49;;;;;;;;;;;;;;;12.19;56.00;98723.66;5055993;27;97027;-81
2021/01/22 09:02:30;;;;;;;;;;;;;;;12.51;54.40;98725.72;5065695;27;100911;-82
2021/01/22 09:05:04;;;;;;;;;;;;;;;12.98;52.99;98732.69;5070589;27;97068;-82
2021/01/22 09:10:29;;;;;;;;;;;;;;;12.91;53.23;98744.75;5083616;27;96886;-81
2021/01/22 09:12:56;;;;;;;;;;;;;;;12.74;53.38;98751.31;5071561;27;98788;-81
2021/01/22 09:15:22;;;;;;;;;;;;;;;12.53;53.88;98748.50;5043416;27;96715;-81
2021/01/22 09:17:50;;;;;;;;;;;;;;;13.01;52.77;98758.97;5076471;27;95882;-81
2021/01/22 09:20:17;;;;;;;;;;;;;;;12.39;54.07;98759.25;5099284;27;97267;-81
2021/01/22 09:22:44;;;;;;;;;;;;;;;13.00;53.14;98766.06;5085230;27;100112;-80
2021/01/22 09:25:15;;;;;;;;;;;;;;;13.28;52.46;98771.94;5066789;27;98280;-81
2021/01/22 09:27:49;;;;;;;;;;;;;;;13.47;52.06;98765.06;5070050;27;96626;-81
2021/01/22 09:30:16;;;;;;;;;;;;;;;13.22;52.48;98780.38;5070083;27;96861;-81
2021/01/22 09:32:46;;;;;;;;;;;;;;;13.21;52.73;98786.63;5051311;27;99047;-81
2021/01/22 09:35:15;;;;;;;;;;;;;;;13.57;51.43;98791.75;5059855;27;101233;-81
2021/01/22 09:37:41;;;;;;;;;;;;;;;13.39;52.17;98780.75;5054682;27;97315;-82
2021/01/22 09:40:12;;;;;;;;;;;;;;;13.17;52.19;98788.69;5062726;27;97350;-82
2021/01/22 09:42:42;;;;;;;;;;;;;;;13.35;51.87;98794.38;5064804;27;101103;-80
2021/01/22 09:45:11;;;;;;;;;;;;;;;13.26;52.17;98808.38;5071802;27;99290;-82
2021/01/22 09:47:37;;;;;;;;;;;;;;;13.33;51.44;98814.84;5044491;28;96816;-82
2021/01/22 09:50:12;;;;;;;;;;;;;;;13.17;51.06;98820.50;5070594;27;96885;-81
2021/01/22 09:52:45;;;;;;;;;;;;;;;13.21;50.73;98831.72;5042226;27;101277;-81
2021/01/22 09:55:20;;;;;;;;;;;;;;;13.52;50.46;98837.19;5045526;27;101434;-80
2021/01/22 09:57:49;;;;;;;;;;;;;;;12.79;51.90;98836.63;5044047;28;96681;-82
2021/01/22 10:00:20;;;;;;;;;;;;;;;13.18;50.97;98821.34;5063215;27;96950;-81
2021/01/22 10:02:46;;;;;;;;;;;;;;;13.07;50.11;98819.47;5054385;27;101409;-81
2021/01/22 10:05:15;;;;;;;;;;;;;;;13.82;48.74;98802.09;5064589;27;100596;-82
2021/01/22 10:07:42;;;;;;;;;;;;;;;13.90;48.24;98799.69;5067616;27;96999;-82
2021/01/22 10:10:09;;;;;;;;;;;;;;;13.76;48.45;98812.38;5072028;27;96922;-81
2021/01/22 10:12:38;;;;;;;;;;;;;;;13.72;48.62;98819.72;5052303;27;98494;-82
2021/01/22 10:15:05;;;;;;;;;;;;;;;13.87;48.10;98836.25;5059767;27;100260;-82
2021/01/22 10:17:33;;;;;;;;;;;;;;;13.63;48.09;98847.00;5074544;27;96526;-82
2021/01/22 10:19:59;;;;;;;;;;;;;;;13.67;48.11;98839.63;5055580;27;95911;-81
2021/01/22 10:22:33;;;;;;;;;;;;;;;13.48;48.19;98840.22;5078225;27;101248;-83
2021/01/22 10:25:09;;;;;;;;;;;;;;;13.50;47.22;98859.53;5080630;27;98391;-82
2021/01/22 10:27:38;;;;;;;;;;;;;;;13.09;47.76;98852.88;5064165;27;96711;-82
2021/01/22 10:30:07;;;;;;;;;;;;;;;13.06;47.31;98871.66;5063980;27;97010;-84
2021/01/22 10:32:42;;;;;;;;;;;;;;;13.17;46.97;98873.56;5069128;27;99351;-81
2021/01/22 10:35:11;;;;;;;;;;;;;;;13.29;46.32;98877.06;5055730;27;98625;-83
2021/01/22 10:37:41;;;;;;;;;;;;;;;13.14;46.14;98881.72;5070231;27;96715;-83
2021/01/22 10:40:08;;;;;;;;;;;;;;;13.06;46.42;98898.16;5058349;27;96704;-82
2021/01/22 10:42:34;;;;;;;;;;;;;;;12.87;45.94;98887.25;5072979;27;98199;-82
2021/01/22 10:45:03;;;;;;;;;;;;;;;12.57;47.15;98889.50;5041491;27;99034;-81
2021/01/22 10:47:32;;;;;;;;;;;;;;;13.16;46.32;98895.72;5061713;27;100257;-80
2021/01/22 10:49:59;;;;;;;;;;;;;;;13.11;45.62;98889.88;5067811;27;96738;-81
2021/01/22 10:52:25;;;;;;;;;;;;;;;12.90;45.67;98897.63;5080181;27;96838;-81
2021/01/22 10:54:51;;;;;;;;;;;;;;;12.35;46.53;98893.69;5070288;27;100152;-82
2021/01/22 10:57:17;;;;;;;;;;;;;;;13.23;45.15;98891.66;5074106;27;96825;-81
2021/01/22 10:59:43;;;;;;;;;;;;;;;13.15;44.14;98900.19;5077197;27;97142;-81
2021/01/22 11:02:10;;;;;;;;;;;;;;;12.99;44.79;98907.56;5062466;27;101507;-82
2021/01/22 11:04:39;;;;;;;;;;;;;;;13.27;43.63;98916.97;5062586;27;102611;-82
2021/01/22 11:07:10;;;;;;;;;;;;;;;13.33;43.60;98916.50;5066927;27;96867;-81
2021/01/22 11:09:36;;;;;;;;;;;;;;;13.21;43.65;98917.44;5055226;27;97953;-82
2021/01/22 11:12:06;;;;;;;;;;;;;;;13.19;43.57;98913.22;5064518;27;96839;-81
2021/01/22 11:14:32;;;;;;;;;;;;;;;13.13;43.55;98925.94;5055364;27;98820;-80
2021/01/22 11:16:58;;;;;;;;;;;;;;;13.19;43.25;98915.88;5055325;27;96849;-82
2021/01/22 11:19:24;;;;;;;;;;;;;;;13.47;43.06;98908.34;5057012;27;97158;-81
2021/01/22 11:21:50;;;;;;;;;;;;;;;13.56;42.63;98899.69;5058475;27;101172;-81
2021/01/22 11:24:17;;;;;;;;;;;;;;;13.67;42.93;98909.47;5064318;27;101935;-80
2021/01/22 11:26:43;;;;;;;;;;;;;;;13.51;43.09;98917.78;5061108;27;96843;-81
2021/01/22 11:29:10;;;;;;;;;;;;;;;13.69;43.09;98918.19;5063845;27;97010;-83
2021/01/22 11:31:36;;;;;;;;;;;;;;;13.57;43.68;98919.97;5067145;27;99043;-83
2021/01/22 11:34:02;;;;;;;;;;;;;;;13.59;43.74;98922.47;5069811;27;98161;-81
2021/01/22 11:36:28;;;;;;;;;;;;;;;13.59;44.20;98921.66;5072790;27;96863;-81
2021/01/22 11:38:54;;;;;;;;;;;;;;;13.66;44.17;98921.06;5069590;27;96718;-82
2021/01/22 11:41:22;;;;;;;;;;;;;;;13.85;43.80;98915.16;5040260;27;98350;-83
2021/01/22 11:43:48;;;;;;;;;;;;;;;13.65;44.29;98919.38;5055907;27;100279;-83
2021/01/22 11:46:14;;;;;;;;;;;;;;;13.53;43.81;98907.88;5057119;27;96698;-82
2021/01/22 11:48:40;;;;;;;;;;;;;;;13.47;44.61;98915.47;5049118;27;97635;-82
2021/01/22 11:51:06;;;;;;;;;;;;;;;13.71;43.33;98916.25;5051178;27;100764;-81
2021/01/22 11:53:34;;;;;;;;;;;;;;;13.90;43.10;98915.66;5048620;28;98051;-81
2021/01/22 11:56:00;;;;;;;;;;;;;;;13.44;42.78;98913.06;5046867;27;96949;-81
2021/01/22 11:58:27;;;;;;;;;;;;;;;13.23;42.03;98906.72;5057307;27;96545;-83
2021/01/22 12:00:53;;;;;;;;;;;;;;;13.37;41.80;98901.22;5040416;27;101287;-81
2021/01/22 12:03:19;;;;;;;;;;;;;;;13.17;41.70;98910.69;5038381;28;98109;-81
2021/01/22 12:05:45;;;;;;;;;;;;;;;13.22;41.76;98910.31;5038358;28;96691;-82
2021/01/22 12:08:11;;;;;;;;;;;;;;;13.47;41.52;98903.03;5038589;28;96817;-81
2021/01/22 12:10:39;;;;;;;;;;;;;;;13.47;41.73;98915.47;5051748;27;98443;-81
2021/01/22 12:13:05;;;;;;;;;;;;;;;13.61;41.64;98907.28;5045787;27;97822;-82
2021/01/22 12:15:32;;;;;;;;;;;;;;;13.53;41.72;98918.50;5060769;27;96834;-81
2021/01/22 12:17:58;;;;;;;;;;;;;;;13.53;41.86;98913.19;5044652;27;96874;-83
2021/01/22 12:20:24;;;;;;;;;;;;;;;13.45;41.96;98912.94;5044111;27;100977;-82
2021/01/22 12:22:50;;;;;;;;;;;;;;;13.80;41.52;98923.50;5067601;27;99053;-80
2021/01/22 12:25:15;;;;;;;;;;;;;;;13.61;41.57;98920.56;5044720;28;96673;-81
2021/01/22 12:27:45;;;;;;;;;;;;;;;13.50;41.74;98917.91;5050889;27;96857;-81
2021/01/22 12:30:11;;;;;;;;;;;;;;;13.67;42.10;98916.59;5049037;28;99821;-79
2021/01/22 12:32:38;;;;;;;;;;;;;;;13.36;42.57;98921.59;5042725;28;101369;-80
2021/01/22 12:35:04;;;;;;;;;;;;;;;13.25;42.98;98924.22;5048147;27;96850;-81
2021/01/22 12:37:30;;;;;;;;;;;;;;;13.32;42.97;98930.75;5042310;27;96844;-81
2021/01/22 12:39:56;;;;;;;;;;;;;;;13.17;43.57;98921.28;5041307;27;97010;-81
2021/01/22 12:42:22;;;;;;;;;;;;;;;13.54;42.52;98925.50;5068077;27;101223;-80
2021/01/22 12:44:48;;;;;;;;;;;;;;;12.80;44.17;98923.09;5071382;27;96853;-81
2021/01/22 12:47:18;;;;;;;;;;;;;;;13.01;43.56;98926.00;5065361;27;96830;-81
2021/01/22 12:49:46;;;;;;;;;;;;;;;13.10;43.35;98941.22;5060912;27;98722;-82
2021/01/22 12:52:12;;;;;;;;;;;;;;;13.07;43.29;98941.44;5056971;27;101134;-80
2021/01/22 12:54:38;;;;;;;;;;;;;;;12.83;42.83;98948.56;5051787;27;96892;-80
2021/01/22 12:57:04;;;;;;;;;;;;;;;12.91;43.32;98944.41;5056700;27;96870;-82
2021/01/22 12:59:36;;;;;;;;;;;;;;;13.00;43.27;98946.34;5054115;27;99365;-81